createdAt,value
2019-01-09T00:03:11.568Z,93.00
2019-01-09T00:07:18.285Z,92.90
2019-01-09T00:11:26.872Z,93.00
2019-01-09T00:16:00.452Z,93.00
2019-01-09T00:20:07.914Z,93.00
2019-01-09T00:24:16.724Z,92.90
2019-01-09T00:28:25.141Z,92.80
2019-01-09T00:32:31.740Z,92.80
2019-01-09T00:36:38.328Z,92.50
2019-01-09T00:40:47.001Z,92.60
2019-01-09T00:44:54.037Z,92.40
2019-01-09T00:49:00.628Z,92.50
2019-01-09T00:53:07.106Z,92.00
2019-01-09T00:57:14.545Z,91.90
2019-01-09T01:01:22.844Z,91.60
2019-01-09T01:05:59.959Z,91.70
2019-01-09T01:10:23.616Z,91.40
2019-01-09T01:14:41.721Z,91.50
2019-01-09T01:19:02.373Z,91.80
2019-01-09T01:23:21.136Z,92.00
2019-01-09T01:27:39.507Z,91.90
2019-01-09T01:32:24.060Z,92.20
2019-01-09T01:36:57.528Z,91.80
2019-01-09T01:41:29.669Z,91.80
2019-01-09T01:45:51.712Z,91.60
2019-01-09T01:50:23.520Z,91.50
2019-01-09T01:55:00.617Z,91.50
2019-01-09T01:59:14.704Z,91.50
2019-01-09T02:03:36.443Z,91.50
2019-01-09T02:08:25.393Z,91.40
2019-01-09T02:12:45.005Z,91.30
2019-01-09T02:17:24.698Z,90.80
2019-01-09T02:21:50.264Z,90.70
2019-01-09T02:26:14.010Z,90.70
2019-01-09T02:30:29.509Z,91.30
2019-01-09T02:34:36.922Z,91.90
2019-01-09T02:38:43.272Z,91.90
2019-01-09T02:42:49.944Z,92.30
2019-01-09T02:46:56.258Z,91.80
2019-01-09T02:51:03.542Z,91.70
2019-01-09T02:55:10.242Z,92.30
2019-01-09T02:59:16.833Z,92.50
2019-01-09T03:03:23.268Z,92.70
2019-01-09T03:07:30.537Z,92.50
2019-01-09T03:15:48.710Z,92.90
2019-01-09T03:20:06.222Z,93.00
2019-01-09T03:24:13.732Z,92.70
2019-01-09T03:28:40.027Z,92.30
2019-01-09T03:32:47.223Z,92.40
2019-01-09T03:36:53.569Z,92.70
2019-01-09T03:41:00.700Z,92.70
2019-01-09T03:45:07.772Z,92.50
2019-01-09T03:49:15.784Z,92.40
2019-01-09T03:53:23.827Z,93.10
2019-01-09T03:57:31.627Z,92.80
2019-01-09T04:01:38.154Z,93.40
2019-01-09T04:05:44.662Z,92.70
2019-01-09T04:09:51.370Z,91.90
2019-01-09T04:14:02.832Z,91.80
2019-01-09T04:18:09.956Z,92.00
2019-01-09T04:22:39.059Z,91.80
2019-01-09T04:26:45.434Z,91.70
2019-01-09T04:30:52.147Z,92.10
2019-01-09T04:34:58.953Z,91.80
2019-01-09T04:39:07.511Z,91.80
2019-01-09T04:43:14.909Z,91.70
2019-01-09T04:47:22.238Z,91.70
2019-01-09T04:51:28.508Z,91.20
2019-01-09T04:55:34.856Z,90.80
2019-01-09T04:59:41.511Z,91.50
2019-01-09T05:03:50.292Z,91.10
2019-01-09T05:07:56.228Z,92.00
2019-01-09T05:12:06.688Z,91.20
2019-01-09T05:16:13.204Z,90.90
2019-01-09T05:20:20.774Z,91.00
2019-01-09T05:28:34.300Z,90.80
2019-01-09T05:32:40.798Z,91.40
2019-01-09T05:36:48.120Z,91.10
2019-01-09T05:40:54.577Z,90.90
2019-01-09T05:45:05.208Z,92.20
2019-01-09T05:49:13.313Z,91.00
2019-01-09T05:53:21.318Z,91.10
2019-01-09T05:57:30.693Z,90.80
2019-01-09T06:01:37.219Z,90.90
2019-01-09T06:05:43.773Z,91.20
2019-01-09T06:09:50.905Z,91.00
2019-01-09T06:13:58.128Z,90.90
2019-01-09T06:18:06.418Z,90.80
2019-01-09T06:22:15.010Z,90.70
2019-01-09T06:26:25.127Z,91.00
2019-01-09T06:30:52.483Z,92.20
2019-01-09T06:34:58.876Z,91.00
2019-01-09T06:43:14.691Z,91.30
2019-01-09T06:47:21.113Z,91.10
2019-01-09T06:51:27.533Z,91.10
2019-01-09T06:55:35.906Z,91.10
2019-01-09T06:59:44.043Z,91.30
2019-01-09T07:03:50.382Z,91.30
2019-01-09T07:12:04.839Z,91.10
2019-01-09T07:16:11.497Z,91.40
2019-01-09T07:20:21.216Z,91.40
2019-01-09T07:24:29.478Z,91.20
2019-01-09T07:28:35.797Z,91.10
2019-01-09T07:32:42.937Z,91.20
2019-01-09T07:36:51.867Z,91.40
2019-01-09T07:41:01.178Z,91.50
2019-01-09T07:45:09.081Z,91.30
2019-01-09T07:49:19.994Z,91.50
2019-01-09T07:53:26.798Z,91.10
2019-01-09T07:57:34.474Z,91.10
2019-01-09T08:01:41.932Z,91.80
2019-01-09T08:05:49.614Z,91.80
2019-01-09T08:09:55.952Z,91.90
2019-01-09T08:14:02.739Z,91.10
2019-01-09T08:18:09.206Z,90.80
2019-01-09T08:22:16.515Z,90.80
2019-01-09T08:26:27.383Z,90.90
2019-01-09T08:30:33.701Z,91.20
2019-01-09T08:34:40.281Z,90.10
2019-01-09T08:38:48.016Z,89.60
2019-01-09T08:42:55.242Z,88.50
2019-01-09T08:47:25.952Z,91.40
2019-01-09T08:51:35.069Z,88.60
2019-01-09T08:56:02.931Z,88.40
2019-01-09T09:00:11.263Z,87.60
2019-01-09T09:04:20.568Z,87.80
2019-01-09T09:08:28.026Z,87.90
2019-01-09T09:12:34.541Z,88.50
2019-01-09T09:16:41.983Z,87.70
2019-01-09T09:20:48.472Z,87.20
2019-01-09T09:24:54.850Z,87.30
2019-01-09T09:29:02.585Z,87.00
2019-01-09T09:33:08.992Z,87.30
2019-01-09T09:37:18.974Z,86.60
2019-01-09T09:41:25.084Z,86.60
2019-01-09T09:49:39.240Z,87.60
2019-01-09T09:53:46.342Z,87.30
2019-01-09T09:57:52.631Z,87.30
2019-01-09T10:01:59.551Z,86.90
2019-01-09T10:06:09.105Z,88.10
2019-01-09T10:10:16.519Z,87.10
2019-01-09T10:14:22.989Z,87.90
2019-01-09T10:18:29.581Z,86.40
2019-01-09T10:22:36.921Z,85.20
2019-01-09T10:26:43.641Z,84.60
2019-01-09T10:30:51.160Z,85.70
2019-01-09T10:35:00.274Z,86.20
2019-01-09T10:39:09.319Z,84.90
2019-01-09T10:43:15.653Z,85.30
2019-01-09T10:47:23.430Z,85.00
2019-01-09T10:51:33.139Z,85.20
2019-01-09T10:56:01.692Z,85.60
2019-01-09T11:00:11.610Z,86.60
2019-01-09T11:04:20.561Z,86.50
2019-01-09T11:08:26.996Z,86.60
2019-01-09T11:12:33.371Z,86.10
2019-01-09T11:16:40.293Z,85.20
2019-01-09T11:20:46.676Z,85.90
2019-01-09T11:24:54.614Z,86.80
2019-01-09T11:29:02.566Z,86.60
2019-01-09T11:33:12.216Z,86.70
2019-01-09T11:42:05.650Z,85.00
2019-01-09T11:46:12.077Z,84.90
2019-01-09T11:50:41.015Z,85.50
2019-01-09T11:54:47.501Z,85.60
2019-01-09T11:58:54.502Z,85.40
2019-01-09T12:03:01.801Z,86.00
2019-01-09T12:07:08.159Z,85.70
2019-01-09T12:11:15.546Z,86.40
2019-01-09T12:15:24.757Z,86.20
2019-01-09T12:19:34.440Z,85.90
2019-01-09T12:23:42.882Z,84.60
2019-01-09T12:27:49.323Z,85.50
2019-01-09T12:31:55.840Z,85.60
2019-01-09T12:36:02.453Z,84.60
2019-01-09T12:40:09.578Z,85.20
2019-01-09T12:44:16.533Z,85.70
2019-01-09T12:48:27.153Z,86.00
2019-01-09T12:52:33.867Z,85.30
2019-01-09T12:56:41.130Z,85.50
2019-01-09T13:00:48.225Z,85.90
2019-01-09T13:04:58.405Z,85.30
2019-01-09T13:09:11.498Z,85.10
2019-01-09T13:13:19.823Z,85.10
2019-01-09T13:17:31.069Z,85.40
2019-01-09T13:21:37.692Z,86.00
2019-01-09T13:25:44.080Z,85.10
2019-01-09T13:29:54.233Z,85.20
2019-01-09T13:34:00.589Z,85.70
2019-01-09T13:38:08.247Z,86.40
2019-01-09T13:42:17.467Z,86.00
2019-01-09T13:46:23.941Z,86.50
2019-01-09T13:50:34.866Z,86.40
2019-01-09T13:54:42.159Z,87.30
2019-01-09T13:58:51.781Z,88.00
2019-01-09T14:02:58.243Z,89.00
2019-01-09T14:07:05.543Z,88.60
2019-01-09T14:11:12.078Z,88.60
2019-01-09T14:15:19.840Z,89.10
2019-01-09T14:19:26.365Z,89.70
2019-01-09T14:23:35.197Z,90.20
2019-01-09T14:27:42.775Z,90.00
2019-01-09T14:31:49.475Z,90.00
2019-01-09T14:35:58.686Z,89.50
2019-01-09T14:40:06.911Z,89.70
2019-01-09T14:44:17.095Z,89.70
2019-01-09T14:48:23.451Z,88.70
2019-01-09T14:52:30.126Z,87.80
2019-01-09T14:56:36.441Z,88.00
2019-01-09T15:00:43.529Z,88.10
2019-01-09T15:04:53.604Z,88.20
2019-01-09T15:09:00.086Z,87.50
2019-01-09T15:13:10.567Z,87.40
2019-01-09T15:17:16.934Z,88.00
2019-01-09T15:21:23.295Z,88.40
2019-01-09T15:25:30.550Z,88.10
2019-01-09T15:29:36.884Z,88.10
2019-01-09T15:33:44.744Z,88.90
2019-01-09T15:38:12.301Z,89.10
2019-01-09T15:42:19.564Z,88.90
2019-01-09T15:46:26.002Z,89.50
2019-01-09T15:50:33.966Z,90.00
2019-01-09T15:54:42.020Z,89.80
2019-01-09T15:58:48.644Z,89.80
2019-01-09T16:02:55.230Z,89.70
2019-01-09T16:07:06.568Z,89.70
2019-01-09T16:11:15.667Z,89.90
2019-01-09T16:15:25.493Z,90.10
2019-01-09T16:19:34.516Z,88.80
2019-01-09T16:23:39.839Z,89.40
2019-01-09T16:27:46.202Z,90.00
2019-01-09T16:31:52.712Z,89.80
2019-01-09T16:35:59.070Z,89.00
2019-01-09T16:40:08.546Z,89.10
2019-01-09T16:44:15.428Z,88.60
2019-01-09T16:48:22.303Z,88.80
2019-01-09T16:52:28.766Z,87.90
2019-01-09T16:56:35.851Z,88.60
2019-01-09T17:00:42.683Z,87.80
2019-01-09T17:04:49.184Z,88.80
2019-01-09T17:08:55.919Z,89.20
2019-01-09T17:17:29.479Z,88.50
2019-01-09T17:21:38.110Z,88.60
2019-01-09T17:25:47.696Z,87.80
2019-01-09T17:29:56.514Z,88.60
2019-01-09T17:34:23.524Z,89.00
2019-01-09T17:38:29.559Z,88.80
2019-01-09T17:42:36.246Z,88.40
2019-01-09T17:46:50.326Z,89.00
2019-01-09T17:50:56.747Z,89.10
2019-01-09T17:55:04.647Z,88.80
2019-01-09T17:59:11.261Z,89.60
2019-01-09T18:03:18.174Z,89.30
2019-01-09T18:07:25.516Z,89.30
2019-01-09T18:11:32.024Z,88.80
2019-01-09T18:15:38.458Z,88.20
2019-01-09T18:19:46.668Z,87.70
2019-01-09T18:23:53.719Z,88.20
2019-01-09T18:28:00.656Z,87.80
2019-01-09T18:32:45.722Z,90.80
2019-01-09T18:37:10.007Z,85.80
2019-01-09T18:41:45.269Z,85.60
2019-01-09T18:46:19.936Z,86.90
2019-01-09T18:50:41.081Z,86.70
2019-01-09T18:54:47.785Z,86.70
2019-01-09T18:58:56.039Z,87.70
2019-01-09T19:03:04.552Z,88.10
2019-01-09T19:07:12.385Z,87.00
2019-01-09T19:11:19.989Z,86.50
2019-01-09T19:15:28.461Z,86.60
2019-01-09T19:19:35.058Z,86.10
2019-01-09T19:23:41.466Z,86.80
2019-01-09T19:27:55.173Z,86.90
2019-01-09T19:32:01.724Z,87.50
2019-01-09T19:36:09.441Z,87.60
2019-01-09T19:40:17.748Z,88.40
2019-01-09T19:44:30.688Z,87.50
2019-01-09T19:48:37.248Z,86.30
2019-01-09T19:52:54.601Z,85.50
2019-01-09T19:57:01.461Z,85.50
2019-01-09T20:01:10.302Z,85.40
2019-01-09T20:05:19.564Z,85.60
2019-01-09T20:09:38.905Z,85.50
2019-01-09T20:13:45.775Z,85.00
2019-01-09T20:17:55.137Z,86.20
2019-01-09T20:22:02.753Z,85.80
2019-01-09T20:26:09.976Z,86.40
2019-01-09T20:30:20.995Z,86.20
2019-01-09T20:34:27.659Z,86.00
2019-01-09T20:38:35.355Z,85.00
2019-01-09T20:42:41.845Z,85.10
2019-01-09T20:46:48.236Z,85.60
2019-01-09T20:50:54.999Z,85.30
2019-01-09T20:55:22.956Z,85.20
2019-01-09T20:59:35.192Z,85.20
2019-01-09T21:03:42.372Z,84.60
2019-01-09T21:07:49.044Z,84.70
2019-01-09T21:11:58.814Z,87.00
2019-01-09T21:16:05.859Z,86.50
2019-01-09T21:20:14.838Z,86.00
2019-01-09T21:29:03.427Z,84.90
2019-01-09T21:33:10.969Z,84.40
2019-01-09T21:37:17.725Z,84.00
2019-01-09T21:41:28.853Z,84.10
2019-01-09T21:45:39.065Z,84.60
2019-01-09T21:49:46.182Z,84.40
2019-01-09T21:53:53.327Z,84.00
2019-01-09T21:58:01.347Z,83.70
2019-01-09T22:02:08.556Z,84.30
2019-01-09T22:06:15.453Z,84.20
2019-01-09T22:10:26.134Z,84.40
2019-01-09T22:14:33.646Z,83.10
2019-01-09T22:18:40.709Z,83.10
2019-01-09T22:22:48.395Z,83.10
2019-01-09T22:26:54.842Z,83.10
2019-01-09T22:31:02.304Z,83.50
2019-01-09T22:35:10.424Z,84.00
2019-01-09T22:39:16.761Z,84.00
2019-01-09T22:43:24.893Z,84.40
2019-01-09T22:47:31.244Z,84.70
2019-01-09T22:51:42.578Z,84.60
2019-01-09T22:55:48.930Z,83.90
2019-01-09T22:59:55.593Z,86.80
2019-01-09T23:04:22.593Z,85.90
2019-01-09T23:08:30.014Z,82.40
2019-01-09T23:12:36.610Z,81.70
2019-01-09T23:17:22.869Z,84.70
2019-01-09T23:21:30.824Z,83.60
2019-01-09T23:25:37.941Z,82.30
2019-01-09T23:29:47.545Z,81.50
2019-01-09T23:33:54.483Z,82.20
2019-01-09T23:38:00.772Z,82.90
2019-01-09T23:42:30.564Z,90.60
2019-01-09T23:46:36.458Z,82.60
2019-01-09T23:50:44.662Z,81.40
2019-01-09T23:54:52.057Z,82.50
2019-01-09T23:58:59.746Z,83.40
